Time;durP1;ratioP1;P1;durP2;ratioP2;P2;SDS_P1;SDS_P2;PMS_P1;PMS_P2;Temp;Humidity;BMP_temperature;BMP_pressure;BME280_temperature;BME280_humidity;BME280_pressure;Samples;Min_cycle;Max_cycle;Signal;HPM_P1;HPM_P2
2023/09/08 00:00:47;;;;;;;;;;;;;;;22.41;51.45;100671.09;4981053;28;6948;-75
2023/09/08 00:03:12;;;;;;;;;;;;;;;22.36;51.75;100668.44;4981642;28;6847;-75
2023/09/08 00:05:38;;;;;;;;;;;;;;;22.32;51.50;100671.91;4966776;28;6799;-76
2023/09/08 00:08:03;;;;;;;;;;;;;;;22.29;51.73;100664.91;4982560;28;6871;-75
2023/09/08 00:10:29;;;;;;;;;;;;;;;22.27;51.40;100664.06;4982790;28;6961;-75
2023/09/08 00:12:54;;;;;;;;;;;;;;;22.23;51.65;100657.09;4967336;28;7034;-75
2023/09/08 00:15:20;;;;;;;;;;;;;;;22.20;51.80;100662.28;4968930;28;6965;-77
2023/09/08 00:17:47;;;;;;;;;;;;;;;22.16;51.60;100660.53;4982622;28;7028;-74
2023/09/08 00:20:13;;;;;;;;;;;;;;;22.11;52.11;100657.00;4967922;28;6796;-75
2023/09/08 00:22:39;;;;;;;;;;;;;;;22.05;51.94;100658.75;4967728;28;6788;-75
2023/09/08 00:25:05;;;;;;;;;;;;;;;21.98;52.14;100659.56;4967793;28;7116;-75
2023/09/08 00:27:31;;;;;;;;;;;;;;;21.91;52.48;100663.00;4967939;28;7015;-74
2023/09/08 00:29:57;;;;;;;;;;;;;;;21.86;52.64;100664.75;4982914;28;7052;-76
2023/09/08 00:32:22;;;;;;;;;;;;;;;21.80;52.64;100662.97;4982106;28;7097;-75
2023/09/08 00:34:48;;;;;;;;;;;;;;;21.73;52.90;100661.19;4966599;28;6954;-75
2023/09/08 00:37:13;;;;;;;;;;;;;;;21.65;52.70;100664.56;4982677;28;6856;-75
2023/09/08 00:39:38;;;;;;;;;;;;;;;21.58;52.75;100664.53;4982671;28;6799;-75
2023/09/08 00:42:04;;;;;;;;;;;;;;;21.50;53.19;100673.19;4966534;28;7016;-74
2023/09/08 00:44:30;;;;;;;;;;;;;;;21.42;53.17;100671.38;4966301;28;7147;-75
2023/09/08 00:46:56;;;;;;;;;;;;;;;21.36;53.21;100669.59;4981941;28;6852;-75
2023/09/08 00:49:22;;;;;;;;;;;;;;;21.30;53.29;100661.72;4982615;28;6784;-75
2023/09/08 00:51:48;;;;;;;;;;;;;;;21.22;53.65;100662.53;4982551;28;7111;-76
2023/09/08 00:54:14;;;;;;;;;;;;;;;21.20;53.84;100666.00;4982076;28;7003;-75
2023/09/08 00:56:40;;;;;;;;;;;;;;;21.18;54.42;100668.59;4971188;28;6871;-76
2023/09/08 00:59:07;;;;;;;;;;;;;;;21.16;54.00;100665.09;4965647;28;6848;-76
2023/09/08 01:01:34;;;;;;;;;;;;;;;21.15;54.17;100663.38;4997751;28;7682;-75
2023/09/08 01:04:00;;;;;;;;;;;;;;;21.13;54.27;100665.06;4968859;28;6850;-76
2023/09/08 01:06:27;;;;;;;;;;;;;;;21.12;54.36;100663.31;4998188;28;6999;-76
2023/09/08 01:08:53;;;;;;;;;;;;;;;21.09;54.53;100665.91;4965036;28;7294;-75
2023/09/08 01:11:20;;;;;;;;;;;;;;;21.06;54.59;100661.53;4969084;28;7298;-75
2023/09/08 01:13:45;;;;;;;;;;;;;;;21.05;55.11;100665.00;4981284;28;7000;-75
2023/09/08 01:16:11;;;;;;;;;;;;;;;21.03;54.79;100660.63;4982694;28;6963;-75
2023/09/08 01:18:37;;;;;;;;;;;;;;;21.01;54.85;100655.44;4969857;28;6797;-76
2023/09/08 01:21:33;;;;;;;;;;;;;;;21.00;54.89;100661.47;4966467;28;6896;-75
2023/09/08 01:24:18;;;;;;;;;;;;;;;20.98;54.91;100659.72;4981622;28;6816;-75
2023/09/08 01:26:44;;;;;;;;;;;;;;;20.98;55.27;100664.94;4967769;28;6815;-76
2023/09/08 01:29:10;;;;;;;;;;;;;;;20.99;55.54;100657.13;4964656;28;7002;-75
2023/09/08 01:31:38;;;;;;;;;;;;;;;21.01;55.39;100662.34;4965221;28;6889;-76
2023/09/08 01:34:06;;;;;;;;;;;;;;;20.99;55.42;100657.13;4965688;28;6800;-76
2023/09/08 01:36:33;;;;;;;;;;;;;;;21.00;55.33;100652.81;4980885;28;6808;-75
2023/09/08 01:38:59;;;;;;;;;;;;;;;20.98;55.21;100657.97;4976880;28;6804;-76
2023/09/08 01:41:25;;;;;;;;;;;;;;;20.97;55.50;100661.44;4997255;28;7104;-76
2023/09/08 01:43:50;;;;;;;;;;;;;;;20.94;55.51;100657.06;4978738;28;6791;-75
2023/09/08 01:46:16;;;;;;;;;;;;;;;20.92;55.60;100669.22;4965803;28;6953;-75
2023/09/08 01:48:41;;;;;;;;;;;;;;;20.91;55.35;100664.03;4965542;28;6796;-76
2023/09/08 01:51:07;;;;;;;;;;;;;;;20.91;55.49;100658.81;4979795;28;6908;-76
2023/09/08 01:53:32;;;;;;;;;;;;;;;20.91;55.49;100658.81;4980797;28;7118;-76
2023/09/08 01:55:58;;;;;;;;;;;;;;;20.92;55.64;100648.38;4998441;28;6955;-75
2023/09/08 01:58:23;;;;;;;;;;;;;;;20.95;56.10;100644.94;4982786;28;6851;-76
2023/09/08 02:00:51;;;;;;;;;;;;;;;20.98;55.74;100646.72;5000509;28;7139;-76
2023/09/08 02:03:16;;;;;;;;;;;;;;;21.01;56.04;100641.50;4985389;28;6947;-76
2023/09/08 02:05:42;;;;;;;;;;;;;;;21.04;55.39;100638.91;4969109;28;7571;-76
2023/09/08 02:08:07;;;;;;;;;;;;;;;21.09;55.59;100645.06;4984933;28;6792;-76
2023/09/08 02:10:33;;;;;;;;;;;;;;;21.13;55.69;100645.97;4985884;28;7033;-75
2023/09/08 02:12:58;;;;;;;;;;;;;;;21.17;55.51;100639.91;4985417;28;6800;-76
2023/09/08 02:15:23;;;;;;;;;;;;;;;21.18;55.30;100639.03;4985153;28;6787;-76
2023/09/08 02:17:52;;;;;;;;;;;;;;;21.17;55.47;100637.28;4984667;28;6800;-76
2023/09/08 02:20:18;;;;;;;;;;;;;;;21.16;55.36;100636.44;4968953;28;6998;-76
2023/09/08 02:22:43;;;;;;;;;;;;;;;21.13;55.30;100632.94;4985860;28;7073;-76
2023/09/08 02:25:09;;;;;;;;;;;;;;;21.10;55.60;100628.56;4969552;28;7084;-76
2023/09/08 02:27:34;;;;;;;;;;;;;;;21.09;55.67;100627.69;4984881;28;7249;-76
2023/09/08 02:30:00;;;;;;;;;;;;;;;21.08;55.41;100630.28;4969124;28;6856;-76
2023/09/08 02:32:25;;;;;;;;;;;;;;;21.07;55.59;100629.41;4968222;28;7287;-75
2023/09/08 02:34:52;;;;;;;;;;;;;;;21.06;55.71;100632.03;4968784;28;7016;-76
2023/09/08 02:37:19;;;;;;;;;;;;;;;21.05;55.53;100632.84;4989678;28;7178;-75
2023/09/08 02:39:44;;;;;;;;;;;;;;;21.04;55.48;100633.72;4975483;28;7224;-76
2023/09/08 02:42:10;;;;;;;;;;;;;;;21.01;55.62;100633.69;4969678;28;7239;-76
2023/09/08 02:44:35;;;;;;;;;;;;;;;20.98;55.35;100636.28;4984704;28;7090;-76
2023/09/08 02:47:01;;;;;;;;;;;;;;;20.94;55.49;100628.41;4984440;28;6800;-75
2023/09/08 02:49:26;;;;;;;;;;;;;;;20.92;55.49;100635.34;4973611;28;6792;-74
2023/09/08 02:51:52;;;;;;;;;;;;;;;20.87;55.67;100634.47;4967020;28;7005;-73
2023/09/08 02:54:17;;;;;;;;;;;;;;;20.84;55.71;100636.16;5000611;28;6938;-73
2023/09/08 02:56:43;;;;;;;;;;;;;;;20.79;55.93;100642.16;4974769;28;6807;-73
2023/09/08 02:59:08;;;;;;;;;;;;;;;20.77;56.14;100640.41;4984438;28;6803;-73
2023/09/08 03:01:34;;;;;;;;;;;;;;;20.77;55.91;100640.41;4970346;28;6990;-75
2023/09/08 03:03:59;;;;;;;;;;;;;;;20.76;55.95;100639.53;4968901;28;6900;-75
2023/09/08 03:06:25;;;;;;;;;;;;;;;20.77;55.82;100645.63;4973678;28;6796;-75
2023/09/08 03:08:50;;;;;;;;;;;;;;;20.73;56.10;100643.81;4983733;28;6852;-74
2023/09/08 03:11:15;;;;;;;;;;;;;;;20.68;56.21;100636.84;4984115;28;6985;-75
2023/09/08 03:13:41;;;;;;;;;;;;;;;20.65;56.18;100642.00;4972422;28;6848;-75
2023/09/08 03:16:08;;;;;;;;;;;;;;;20.62;56.14;100644.59;4975343;28;6779;-75
2023/09/08 03:18:36;;;;;;;;;;;;;;;20.58;56.20;100635.00;4971983;28;6804;-75
2023/09/08 03:21:08;;;;;;;;;;;;;;;20.51;56.09;100630.59;4984465;28;6956;-75
2023/09/08 03:23:38;;;;;;;;;;;;;;;20.46;55.99;100629.66;4983893;28;8254;-75
2023/09/08 03:26:03;;;;;;;;;;;;;;;20.40;56.32;100633.97;4969606;28;7179;-75
2023/09/08 03:28:29;;;;;;;;;;;;;;;20.36;56.74;100639.09;4984575;28;6787;-75
2023/09/08 03:30:54;;;;;;;;;;;;;;;20.32;56.52;100637.31;4967092;28;7053;-75
2023/09/08 03:33:20;;;;;;;;;;;;;;;20.29;57.05;100632.06;4983912;28;7258;-75
2023/09/08 03:35:45;;;;;;;;;;;;;;;20.24;57.01;100629.41;4999239;28;6776;-75
2023/09/08 03:38:11;;;;;;;;;;;;;;;20.20;56.55;100622.44;4967322;28;6796;-74
2023/09/08 03:40:37;;;;;;;;;;;;;;;20.18;56.97;100626.72;4968355;28;6960;-75
2023/09/08 03:43:03;;;;;;;;;;;;;;;20.16;57.14;100631.94;4971633;28;6796;-75
2023/09/08 03:45:29;;;;;;;;;;;;;;;20.13;57.20;100626.69;4967793;28;7016;-74
2023/09/08 03:47:54;;;;;;;;;;;;;;;20.10;57.69;100627.53;4982945;28;6950;-75
2023/09/08 03:50:19;;;;;;;;;;;;;;;20.09;57.45;100622.31;4984036;28;6780;-75
2023/09/08 03:52:45;;;;;;;;;;;;;;;20.05;57.61;100624.00;4999873;28;8500;-75
2023/09/08 03:55:11;;;;;;;;;;;;;;;20.00;57.37;100625.69;4967528;28;7212;-75
2023/09/08 03:57:36;;;;;;;;;;;;;;;19.96;57.03;100634.28;4999764;28;7020;-75
2023/09/08 04:00:04;;;;;;;;;;;;;;;19.90;57.75;100634.19;4969134;28;7407;-75
2023/09/08 04:02:30;;;;;;;;;;;;;;;19.87;57.61;100634.13;4998909;28;6961;-75
2023/09/08 04:04:55;;;;;;;;;;;;;;;19.82;57.48;100636.66;4969804;28;7194;-75
2023/09/08 04:07:21;;;;;;;;;;;;;;;19.79;57.72;100641.84;4999762;28;7011;-75
2023/09/08 04:09:46;;;;;;;;;;;;;;;19.76;57.68;100644.41;4971993;28;6784;-75
2023/09/08 04:12:12;;;;;;;;;;;;;;;19.71;57.88;100634.78;4967836;28;6977;-75
2023/09/08 04:14:37;;;;;;;;;;;;;;;19.69;58.00;100636.50;4972110;28;6784;-75
2023/09/08 04:17:03;;;;;;;;;;;;;;;19.66;57.97;100630.38;4968171;28;7283;-75
2023/09/08 04:19:28;;;;;;;;;;;;;;;19.62;58.57;100628.59;4971417;28;6951;-75
2023/09/08 04:21:54;;;;;;;;;;;;;;;19.61;58.15;100630.31;4983244;28;6851;-75
2023/09/08 04:24:20;;;;;;;;;;;;;;;19.63;58.91;100632.94;4970510;28;6788;-75
2023/09/08 04:26:45;;;;;;;;;;;;;;;19.62;58.13;100632.06;4983058;28;6791;-75
2023/09/08 04:29:11;;;;;;;;;;;;;;;19.61;58.57;100637.25;4966494;28;6969;-75
2023/09/08 04:31:37;;;;;;;;;;;;;;;19.61;58.48;100629.47;4982529;28;7273;-75
2023/09/08 04:34:02;;;;;;;;;;;;;;;19.60;58.88;100628.56;4966629;28;7332;-75
2023/09/08 04:36:27;;;;;;;;;;;;;;;19.62;58.62;100628.59;4943782;28;6817;-75
2023/09/08 04:38:53;;;;;;;;;;;;;;;19.66;59.14;100635.59;4967447;28;7019;-75
2023/09/08 04:41:18;;;;;;;;;;;;;;;19.68;59.01;100634.75;4966964;28;6976;-75
2023/09/08 04:43:44;;;;;;;;;;;;;;;19.73;59.16;100637.44;4970159;28;7083;-75
2023/09/08 04:46:09;;;;;;;;;;;;;;;19.77;59.11;100630.53;4966257;28;6975;-75
2023/09/08 04:48:35;;;;;;;;;;;;;;;19.82;59.13;100628.88;4981739;28;6793;-75
2023/09/08 04:51:01;;;;;;;;;;;;;;;19.85;59.20;100631.53;4965518;28;7237;-75
2023/09/08 04:53:26;;;;;;;;;;;;;;;19.85;59.28;100627.19;4966085;28;6803;-75
2023/09/08 04:55:52;;;;;;;;;;;;;;;19.87;58.75;100635.00;4971533;28;6836;-75
2023/09/08 04:58:17;;;;;;;;;;;;;;;19.88;59.17;100631.56;4971624;28;6800;-75
2023/09/08 05:00:43;;;;;;;;;;;;;;;19.90;58.93;100636.78;4968007;28;6826;-75
2023/09/08 05:03:08;;;;;;;;;;;;;;;19.91;59.36;100636.78;4982727;28;6852;-75
2023/09/08 05:05:34;;;;;;;;;;;;;;;19.93;59.07;100636.81;4982164;28;7041;-75
2023/09/08 05:07:59;;;;;;;;;;;;;;;19.96;58.95;100644.69;4982401;28;6951;-75
2023/09/08 05:10:25;;;;;;;;;;;;;;;19.98;58.86;100648.19;4982425;28;6935;-76
2023/09/08 05:12:51;;;;;;;;;;;;;;;20.01;58.65;100648.22;4982572;28;6955;-76
2023/09/08 05:15:20;;;;;;;;;;;;;;;19.99;58.66;100642.16;4998465;28;6972;-75
2023/09/08 05:17:46;;;;;;;;;;;;;;;19.97;58.38;100647.31;4970235;28;7004;-76
2023/09/08 05:20:11;;;;;;;;;;;;;;;19.97;58.50;100649.03;4998565;28;7240;-76
2023/09/08 05:22:37;;;;;;;;;;;;;;;19.96;58.79;100652.50;4967351;28;6780;-76
2023/09/08 05:25:03;;;;;;;;;;;;;;;19.97;58.72;100649.03;4997649;28;7039;-75
2023/09/08 05:27:28;;;;;;;;;;;;;;;19.98;58.72;100648.19;4965852;28;6800;-75
2023/09/08 05:29:54;;;;;;;;;;;;;;;20.01;59.18;100650.84;4972810;28;7578;-75
2023/09/08 05:32:20;;;;;;;;;;;;;;;20.02;58.63;100656.91;4971734;28;6807;-75
2023/09/08 05:34:45;;;;;;;;;;;;;;;20.03;59.00;100651.72;4982059;28;7386;-76
2023/09/08 05:37:11;;;;;;;;;;;;;;;20.04;58.70;100653.47;4981218;28;7158;-76
2023/09/08 05:39:36;;;;;;;;;;;;;;;20.06;58.93;100646.56;4997579;28;6990;-75
2023/09/08 05:42:01;;;;;;;;;;;;;;;20.08;58.98;100655.25;4981358;28;6852;-76
2023/09/08 05:44:27;;;;;;;;;;;;;;;20.10;59.13;100658.75;4970905;28;6788;-75
2023/09/08 05:46:52;;;;;;;;;;;;;;;20.16;58.71;100654.47;4971388;28;7013;-75
2023/09/08 05:49:18;;;;;;;;;;;;;;;20.19;59.34;100652.78;4996920;28;6799;-75
2023/09/08 05:51:44;;;;;;;;;;;;;;;20.24;58.89;100656.34;4981323;28;6784;-76
2023/09/08 05:54:09;;;;;;;;;;;;;;;20.30;58.96;100658.13;4996977;28;7107;-75
2023/09/08 05:56:36;;;;;;;;;;;;;;;20.38;59.28;100659.09;4997628;28;7037;-76
2023/09/08 05:59:02;;;;;;;;;;;;;;;20.46;59.19;100655.69;4966456;28;6845;-76
2023/09/08 06:01:28;;;;;;;;;;;;;;;20.52;59.36;100648.84;4981743;28;6927;-75
2023/09/08 06:03:54;;;;;;;;;;;;;;;20.60;58.78;100654.13;4980885;28;6950;-75
2023/09/08 06:06:21;;;;;;;;;;;;;;;20.68;59.28;100657.69;4970135;28;6979;-76
2023/09/08 06:08:46;;;;;;;;;;;;;;;20.77;58.77;100650.81;4996627;28;6816;-75
2023/09/08 06:11:12;;;;;;;;;;;;;;;20.85;58.74;100659.59;4965504;28;6950;-76
2023/09/08 06:13:37;;;;;;;;;;;;;;;20.93;58.64;100642.31;4981361;28;6976;-76
2023/09/08 06:16:03;;;;;;;;;;;;;;;21.02;58.50;100644.16;4981145;28;6952;-75
2023/09/08 06:18:32;;;;;;;;;;;;;;;21.10;58.48;100646.81;4981080;28;6952;-76
2023/09/08 06:20:57;;;;;;;;;;;;;;;21.20;58.35;100646.03;4981185;28;6992;-75
2023/09/08 06:23:23;;;;;;;;;;;;;;;21.29;58.48;100650.41;4966208;28;6974;-76
2023/09/08 06:25:49;;;;;;;;;;;;;;;21.39;58.25;100651.38;4966756;28;6781;-76
2023/09/08 06:28:14;;;;;;;;;;;;;;;21.51;58.05;100650.59;4965604;28;6764;-75
2023/09/08 06:30:41;;;;;;;;;;;;;;;21.60;57.82;100655.88;4967452;28;7010;-75
2023/09/08 06:33:10;;;;;;;;;;;;;;;21.71;57.95;100658.56;4982264;28;6998;-76
2023/09/08 06:35:35;;;;;;;;;;;;;;;21.84;57.77;100658.66;4998225;28;6804;-75
2023/09/08 06:38:01;;;;;;;;;;;;;;;21.94;57.35;100652.63;4964729;28;6971;-75
2023/09/08 06:40:29;;;;;;;;;;;;;;;22.05;57.46;100660.47;4951734;28;7003;-76
2023/09/08 06:42:55;;;;;;;;;;;;;;;22.14;57.33;100654.44;4966653;28;6832;-75
2023/09/08 06:45:20;;;;;;;;;;;;;;;22.24;56.73;100656.22;4984951;28;6791;-76
2023/09/08 06:47:46;;;;;;;;;;;;;;;22.35;57.01;100666.69;4978651;28;6951;-76
2023/09/08 06:50:12;;;;;;;;;;;;;;;22.43;56.55;100659.75;4985293;28;6989;-76
2023/09/08 06:52:38;;;;;;;;;;;;;;;22.54;56.27;100670.28;4962813;28;7155;-75
2023/09/08 06:55:05;;;;;;;;;;;;;;;22.64;56.45;100659.84;4992264;28;7035;-76
2023/09/08 06:57:30;;;;;;;;;;;;;;;22.71;55.91;100659.00;5000758;28;7179;-76
2023/09/08 06:59:56;;;;;;;;;;;;;;;22.80;56.07;100659.00;4968559;28;6952;-76
2023/09/08 07:02:21;;;;;;;;;;;;;;;22.89;55.50;100653.81;4985577;28;6968;-76
2023/09/08 07:04:47;;;;;;;;;;;;;;;22.98;55.63;100657.25;4952006;28;7029;-76
2023/09/08 07:07:12;;;;;;;;;;;;;;;23.06;55.15;100652.91;4972733;28;6796;-76
2023/09/08 07:09:37;;;;;;;;;;;;;;;23.16;54.84;100659.88;4984334;28;6871;-76
2023/09/08 07:12:04;;;;;;;;;;;;;;;23.27;54.79;100664.25;4969605;28;6926;-76
2023/09/08 07:14:30;;;;;;;;;;;;;;;23.36;54.81;100666.88;4970422;28;6792;-76
2023/09/08 07:16:56;;;;;;;;;;;;;;;23.46;54.75;100672.09;4984736;28;7024;-75
2023/09/08 07:19:21;;;;;;;;;;;;;;;23.55;54.17;100665.13;4986077;28;6772;-76
2023/09/08 07:21:47;;;;;;;;;;;;;;;23.65;54.33;100663.34;5005598;28;6880;-75
2023/09/08 07:24:12;;;;;;;;;;;;;;;23.77;54.21;100667.69;4995399;28;6753;-76
2023/09/08 07:26:38;;;;;;;;;;;;;;;23.86;53.78;100665.06;4968920;28;6937;-76
2023/09/08 07:29:03;;;;;;;;;;;;;;;23.97;53.79;100679.84;4969777;28;6784;-76
2023/09/08 07:31:29;;;;;;;;;;;;;;;24.05;53.73;100672.88;4973755;28;6852;-76
2023/09/08 07:33:54;;;;;;;;;;;;;;;24.16;53.70;100677.19;4984187;28;7151;-76
2023/09/08 07:36:20;;;;;;;;;;;;;;;24.24;53.66;100676.31;4983478;28;6791;-76
2023/09/08 07:38:45;;;;;;;;;;;;;;;24.34;53.00;100671.88;4984112;28;6993;-75
2023/09/08 07:41:11;;;;;;;;;;;;;;;24.45;53.22;100674.47;4982508;28;6852;-76
2023/09/08 07:43:40;;;;;;;;;;;;;;;24.58;52.95;100674.38;4972129;28;7172;-76
2023/09/08 07:46:08;;;;;;;;;;;;;;;24.67;52.19;100669.97;4967814;28;7427;-76
2023/09/08 07:48:34;;;;;;;;;;;;;;;24.78;52.41;100674.31;4967363;28;6992;-76
2023/09/08 07:51:00;;;;;;;;;;;;;;;24.89;52.09;100676.81;4983976;28;6803;-76
2023/09/08 07:53:26;;;;;;;;;;;;;;;25.01;51.65;100674.09;4967444;28;6866;-76
2023/09/08 07:55:52;;;;;;;;;;;;;;;25.12;52.00;100666.16;4972429;28;7213;-76
2023/09/08 07:58:17;;;;;;;;;;;;;;;25.22;51.87;100677.47;4983652;28;6963;-76
2023/09/08 08:00:43;;;;;;;;;;;;;;;25.31;52.29;100666.91;4966757;28;6983;-76
2023/09/08 08:03:09;;;;;;;;;;;;;;;25.42;52.71;100673.78;4967451;28;6965;-76
2023/09/08 08:05:34;;;;;;;;;;;;;;;25.50;52.45;100661.50;4972817;28;6969;-76
2023/09/08 08:08:00;;;;;;;;;;;;;;;25.60;52.55;100662.25;4983333;28;6993;-75
2023/09/08 08:10:25;;;;;;;;;;;;;;;25.70;52.47;100668.31;4975379;28;6775;-76
2023/09/08 08:12:51;;;;;;;;;;;;;;;25.81;52.08;100666.41;4973520;28;7173;-76
2023/09/08 08:15:21;;;;;;;;;;;;;;;25.93;52.27;100668.91;4967187;28;8497;-76
2023/09/08 08:17:47;;;;;;;;;;;;;;;26.05;52.22;100667.00;4999549;28;6823;-76
2023/09/08 08:20:17;;;;;;;;;;;;;;;26.15;51.66;100665.16;4983726;28;7223;-76
2023/09/08 08:22:44;;;;;;;;;;;;;;;26.26;51.40;100659.78;4999996;28;7435;-76
2023/09/08 08:25:09;;;;;;;;;;;;;;;26.35;51.11;100670.16;4999511;28;6792;-76
2023/09/08 08:27:34;;;;;;;;;;;;;;;26.44;50.82;100664.78;4982604;28;8565;-76
2023/09/08 08:30:00;;;;;;;;;;;;;;;26.57;50.98;100664.63;4971217;28;6843;-76
2023/09/08 08:32:26;;;;;;;;;;;;;;;26.68;51.05;100673.22;4969161;28;7008;-76
2023/09/08 08:34:52;;;;;;;;;;;;;;;26.80;50.84;100669.53;4983234;28;6986;-76
2023/09/08 08:37:18;;;;;;;;;;;;;;;26.92;50.33;100672.91;4972700;28;6788;-76
2023/09/08 08:39:43;;;;;;;;;;;;;;;27.02;50.34;100671.84;4983010;28;7263;-76
2023/09/08 08:42:09;;;;;;;;;;;;;;;27.14;49.78;100673.44;4982060;28;6796;-76
2023/09/08 08:44:37;;;;;;;;;;;;;;;27.24;49.35;100671.50;4973506;28;7019;-76
2023/09/08 08:47:06;;;;;;;;;;;;;;;27.34;49.57;100674.84;4982089;28;7134;-76
2023/09/08 08:49:32;;;;;;;;;;;;;;;27.42;49.29;100672.91;4998479;28;6811;-75
2023/09/08 08:51:59;;;;;;;;;;;;;;;27.55;49.50;100673.59;4954296;28;7145;-76
2023/09/08 08:54:25;;;;;;;;;;;;;;;27.65;48.62;100675.16;4998830;28;7333;-76
2023/09/08 08:56:51;;;;;;;;;;;;;;;27.73;48.72;100667.97;4966854;28;6965;-76
2023/09/08 08:59:16;;;;;;;;;;;;;;;27.82;49.12;100664.31;4981585;28;7002;-75
2023/09/08 09:01:43;;;;;;;;;;;;;;;27.91;48.01;100668.53;4965819;28;6791;-76
2023/09/08 09:04:09;;;;;;;;;;;;;;;28.03;48.55;100671.81;4998115;28;6800;-76
2023/09/08 09:06:36;;;;;;;;;;;;;;;28.12;47.76;100674.25;4981841;28;6804;-76
2023/09/08 09:09:04;;;;;;;;;;;;;;;28.21;47.36;100665.31;4966214;28;6995;-76
2023/09/08 09:11:31;;;;;;;;;;;;;;;28.32;47.23;100665.97;4972525;28;7014;-76
2023/09/08 09:13:57;;;;;;;;;;;;;;;28.45;47.46;100668.31;4981964;28;7222;-76
2023/09/08 09:16:22;;;;;;;;;;;;;;;28.55;47.46;100668.06;4966740;28;7003;-76
2023/09/08 09:18:59;;;;;;;;;;;;;;;28.67;46.41;100672.19;4981997;28;6788;-76
2023/09/08 09:21:41;;;;;;;;;;;;;;;28.79;46.17;100671.03;4998631;28;6891;-76
2023/09/08 09:24:07;;;;;;;;;;;;;;;28.88;46.05;100672.63;4997835;28;6990;-75
2023/09/08 09:26:32;;;;;;;;;;;;;;;29.00;45.87;100667.94;4982904;28;6807;-76
2023/09/08 09:28:59;;;;;;;;;;;;;;;29.10;45.58;100672.09;4969167;28;6990;-76
2023/09/08 09:31:25;;;;;;;;;;;;;;;29.21;44.75;100661.25;4966657;28;8295;-76
2023/09/08 09:34:04;;;;;;;;;;;;;;;29.31;44.81;100667.16;4997608;28;7046;-76
2023/09/08 09:36:30;;;;;;;;;;;;;;;29.36;44.95;100663.50;4981078;28;7265;-76
2023/09/08 09:39:03;;;;;;;;;;;;;;;29.45;44.60;100667.69;4966077;28;7481;-76
2023/09/08 09:41:29;;;;;;;;;;;;;;;29.54;43.74;100670.97;4966112;28;7258;-76
2023/09/08 09:43:56;;;;;;;;;;;;;;;29.61;44.39;100664.63;4982689;28;7200;-76
2023/09/08 09:46:22;;;;;;;;;;;;;;;29.70;43.86;100664.38;4967474;28;7192;-76
2023/09/08 09:48:52;;;;;;;;;;;;;;;29.78;43.43;100662.41;4997010;28;7041;-76
2023/09/08 09:51:19;;;;;;;;;;;;;;;29.89;43.09;100669.16;4997696;28;7230;-76
2023/09/08 09:53:45;;;;;;;;;;;;;;;29.97;43.14;100664.50;4965638;28;7227;-76
2023/09/08 09:56:11;;;;;;;;;;;;;;;30.06;42.69;100666.91;4998337;28;6787;-76
2023/09/08 09:58:37;;;;;;;;;;;;;;;30.15;42.47;100657.84;4982109;28;7003;-76
2023/09/08 10:01:04;;;;;;;;;;;;;;;30.30;41.54;100664.44;4971909;28;6791;-76
2023/09/08 10:03:31;;;;;;;;;;;;;;;30.87;41.29;100667.09;4965056;28;7245;-76
2023/09/08 10:05:59;;;;;;;;;;;;;;;31.91;40.06;100662.69;4981806;28;7008;-76
2023/09/08 10:08:24;;;;;;;;;;;;;;;33.02;38.47;100656.59;4965474;28;6884;-76
2023/09/08 10:10:50;;;;;;;;;;;;;;;34.23;37.55;100644.22;4981726;28;7196;-76
2023/09/08 10:13:24;;;;;;;;;;;;;;;35.53;35.89;100652.88;4997940;28;6809;-76
2023/09/08 10:15:50;;;;;;;;;;;;;;;36.63;34.21;100649.56;4982062;28;7000;-74
2023/09/08 10:18:19;;;;;;;;;;;;;;;37.38;32.56;100650.50;4967831;28;6868;-74
2023/09/08 10:20:45;;;;;;;;;;;;;;;37.86;31.36;100644.00;4986029;28;6792;-74
2023/09/08 10:23:26;;;;;;;;;;;;;;;38.34;31.47;100644.50;4985010;28;8685;-74
2023/09/08 10:25:58;;;;;;;;;;;;;;;38.96;29.88;100650.28;4984923;28;6887;-74
2023/09/08 10:28:25;;;;;;;;;;;;;;;39.39;28.74;100642.91;5001008;28;6812;-74
2023/09/08 10:30:51;;;;;;;;;;;;;;;39.67;27.99;100651.69;4968475;28;6986;-74
2023/09/08 10:33:19;;;;;;;;;;;;;;;39.94;27.36;100651.53;4968793;28;6812;-74
2023/09/08 10:35:45;;;;;;;;;;;;;;;40.39;27.20;100648.28;5001187;28;7008;-74
2023/09/08 10:38:27;;;;;;;;;;;;;;;40.81;26.38;100650.53;5000449;28;6820;-74
2023/09/08 10:41:16;;;;;;;;;;;;;;;41.21;26.54;100648.44;5000747;28;7321;-74
2023/09/08 10:44:07;;;;;;;;;;;;;;;41.61;25.78;100653.34;4969551;28;6996;-74
2023/09/08 10:46:34;;;;;;;;;;;;;;;41.96;25.01;100643.41;5000711;28;7005;-74
2023/09/08 10:49:07;;;;;;;;;;;;;;;42.15;24.63;100650.88;4983883;28;7120;-74
2023/09/08 10:51:35;;;;;;;;;;;;;;;42.28;24.15;100652.53;4967982;28;6800;-74
2023/09/08 10:54:01;;;;;;;;;;;;;;;42.49;24.09;100639.09;4984995;28;7268;-74
2023/09/08 10:56:31;;;;;;;;;;;;;;;42.80;24.20;100643.75;4984910;28;6816;-74
2023/09/08 10:58:59;;;;;;;;;;;;;;;43.03;23.96;100644.50;5000459;28;6811;-74
2023/09/08 11:01:28;;;;;;;;;;;;;;;43.13;23.76;100652.63;4967797;28;7203;-74
2023/09/08 11:03:54;;;;;;;;;;;;;;;43.19;23.41;100646.72;4969867;28;6799;-74
2023/09/08 11:06:29;;;;;;;;;;;;;;;43.05;22.75;100650.59;4974558;28;6963;-75
2023/09/08 11:08:55;;;;;;;;;;;;;;;42.78;22.92;100651.09;4983944;28;6816;-74
2023/09/08 11:11:21;;;;;;;;;;;;;;;42.51;23.20;100647.94;4984297;28;6958;-74
2023/09/08 11:13:47;;;;;;;;;;;;;;;42.29;23.01;100643.47;5000538;28;7230;-74
2023/09/08 11:16:14;;;;;;;;;;;;;;;42.28;23.61;100645.31;4984560;28;6994;-74
2023/09/08 11:18:42;;;;;;;;;;;;;;;42.36;23.52;100646.53;4983249;28;7154;-74
2023/09/08 11:21:08;;;;;;;;;;;;;;;42.58;23.25;100632.97;4984245;28;6871;-74
2023/09/08 11:23:34;;;;;;;;;;;;;;;42.89;23.13;100645.66;4967067;28;7061;-74
2023/09/08 11:26:00;;;;;;;;;;;;;;;42.98;22.83;100639.50;4971023;28;7232;-74
2023/09/08 11:28:28;;;;;;;;;;;;;;;42.79;22.37;100636.66;4968210;28;6791;-74
2023/09/08 11:30:55;;;;;;;;;;;;;;;42.54;22.55;100644.13;4983161;28;7362;-74
2023/09/08 11:33:25;;;;;;;;;;;;;;;42.40;22.99;100637.19;4966480;28;7009;-74
2023/09/08 11:35:52;;;;;;;;;;;;;;;42.36;23.04;100639.28;4967788;28;7342;-74
2023/09/08 11:38:18;;;;;;;;;;;;;;;42.35;22.66;100640.28;4966956;28;7151;-74
2023/09/08 11:40:44;;;;;;;;;;;;;;;42.38;22.65;100634.63;4972305;28;7104;-74
2023/09/08 11:43:11;;;;;;;;;;;;;;;42.50;22.73;100635.47;4983509;28;7444;-74
2023/09/08 11:45:37;;;;;;;;;;;;;;;42.66;22.70;100634.16;4967683;28;7339;-74
2023/09/08 11:48:06;;;;;;;;;;;;;;;42.99;22.27;100638.53;5000425;28;6975;-74
2023/09/08 11:50:31;;;;;;;;;;;;;;;43.20;22.07;100631.38;4967527;28;7087;-74
2023/09/08 11:53:02;;;;;;;;;;;;;;;43.21;21.73;100644.72;4999693;28;6970;-74
2023/09/08 11:55:28;;;;;;;;;;;;;;;43.23;21.69;100637.34;4969090;28;6826;-74
2023/09/08 11:57:57;;;;;;;;;;;;;;;43.26;21.58;100634.38;4967883;28;6804;-74
2023/09/08 12:00:24;;;;;;;;;;;;;;;43.37;21.66;100638.88;4969208;28;7303;-74
2023/09/08 12:02:50;;;;;;;;;;;;;;;43.21;21.55;100636.63;4985017;28;6908;-74
2023/09/08 12:05:23;;;;;;;;;;;;;;;42.84;21.83;100637.13;4966625;28;7226;-74
2023/09/08 12:07:58;;;;;;;;;;;;;;;42.57;21.77;100628.56;4983356;28;7003;-74
2023/09/08 12:10:25;;;;;;;;;;;;;;;42.30;22.12;100631.72;4967010;28;6994;-74
2023/09/08 12:12:58;;;;;;;;;;;;;;;42.23;22.45;100625.16;4999799;28;7016;-74
2023/09/08 12:15:37;;;;;;;;;;;;;;;42.19;22.25;100625.38;4967387;28;6859;-74
2023/09/08 12:18:05;;;;;;;;;;;;;;;42.17;22.20;100623.84;4982580;28;6872;-74
2023/09/08 12:20:32;;;;;;;;;;;;;;;42.12;22.68;100623.34;4968574;28;6804;-74
2023/09/08 12:23:01;;;;;;;;;;;;;;;42.08;22.67;100621.91;4999063;28;7064;-74
2023/09/08 12:25:27;;;;;;;;;;;;;;;42.15;22.76;100615.88;4982539;28;7421;-74
2023/09/08 12:27:54;;;;;;;;;;;;;;;42.28;22.40;100617.53;4969567;28;6796;-74
2023/09/08 12:30:21;;;;;;;;;;;;;;;42.40;22.70;100611.13;4970951;28;6827;-74
2023/09/08 12:32:49;;;;;;;;;;;;;;;42.61;22.96;100613.84;4973356;28;6920;-74
2023/09/08 12:35:24;;;;;;;;;;;;;;;42.65;22.62;100610.91;4982571;28;6827;-74
2023/09/08 12:38:03;;;;;;;;;;;;;;;42.61;22.21;100613.00;4967659;28;6911;-74
2023/09/08 12:40:32;;;;;;;;;;;;;;;42.51;22.79;100612.09;4981800;28;6996;-74
2023/09/08 12:42:58;;;;;;;;;;;;;;;42.52;22.58;100608.41;4998446;28;7022;-74
2023/09/08 12:45:26;;;;;;;;;;;;;;;42.68;22.18;100603.41;4968201;28;6796;-74